Time;durP1;ratioP1;P1;durP2;ratioP2;P2;SDS_P1;SDS_P2;PMS_P1;PMS_P2;Temp;Humidity;BMP_temperature;BMP_pressure;BME280_temperature;BME280_humidity;BME280_pressure;Samples;Min_cycle;Max_cycle;Signal;HPM_P1;HPM_P2
2023/05/10 00:01:11;;;;;;;10.00;6.60;;;;;;;20.65;53.65;100916.19;5023591;28;20052;-35
2023/05/10 00:03:38;;;;;;;10.05;7.05;;;;;;;20.64;53.75;100914.53;5024656;28;20045;-35
2023/05/10 00:06:05;;;;;;;9.30;6.65;;;;;;;20.63;53.78;100918.22;5021992;28;20049;-36
2023/05/10 00:08:32;;;;;;;9.25;6.70;;;;;;;20.64;53.99;100925.28;5022475;28;20413;-35
2023/05/10 00:10:58;;;;;;;9.93;6.55;;;;;;;20.62;54.01;100916.56;5025288;28;20057;-35
2023/05/10 00:13:25;;;;;;;8.95;6.20;;;;;;;20.61;54.02;100911.31;5023330;28;20052;-36
2023/05/10 00:15:51;;;;;;;9.63;6.82;;;;;;;20.60;54.01;100918.56;5020645;28;20052;-36
2023/05/10 00:18:18;;;;;;;9.85;7.18;;;;;;;20.60;54.45;100915.88;5022998;28;20053;-36
2023/05/10 00:20:45;;;;;;;8.25;6.03;;;;;;;20.59;54.09;100922.28;5024963;28;20132;-35
2023/05/10 00:23:12;;;;;;;9.20;6.40;;;;;;;20.59;53.86;100916.03;5018364;28;20045;-35
2023/05/10 00:25:39;;;;;;;9.63;6.38;;;;;;;20.59;53.88;100916.03;5018301;28;20493;-36
2023/05/10 00:28:05;;;;;;;9.00;6.45;;;;;;;20.57;54.52;100920.75;5020557;28;20509;-36
2023/05/10 00:30:32;;;;;;;8.15;6.15;;;;;;;20.56;54.33;100913.69;5020617;28;20042;-37
2023/05/10 00:32:58;;;;;;;9.55;6.75;;;;;;;20.57;53.93;100915.34;5021226;28;20061;-35
2023/05/10 00:35:25;;;;;;;9.50;6.45;;;;;;;20.55;54.42;100918.22;5022325;28;20058;-35
2023/05/10 00:37:52;;;;;;;8.15;5.80;;;;;;;20.55;54.38;100912.00;5017551;28;20248;-36
2023/05/10 00:40:18;;;;;;;8.68;6.18;;;;;;;20.53;54.39;100920.22;5021469;28;20053;-35
2023/05/10 00:42:45;;;;;;;8.52;6.28;;;;;;;20.52;54.42;100923.94;5024674;28;20390;-36
2023/05/10 00:45:12;;;;;;;8.23;5.95;;;;;;;20.52;54.48;100923.94;5023693;28;20456;-36
2023/05/10 00:47:39;;;;;;;7.65;5.60;;;;;;;20.51;54.41;100932.19;5019477;28;20042;-35
2023/05/10 00:50:06;;;;;;;10.73;6.95;;;;;;;20.51;53.90;100926.81;5020906;28;20091;-35
2023/05/10 00:52:33;;;;;;;8.50;5.90;;;;;;;20.50;54.18;100923.25;5024235;28;20054;-35
2023/05/10 00:55:00;;;;;;;8.98;5.93;;;;;;;20.50;54.26;100927.81;5026343;28;20050;-35
2023/05/10 00:57:26;;;;;;;8.65;6.18;;;;;;;20.50;54.47;100927.81;5025190;28;20049;-36
2023/05/10 00:59:53;;;;;;;8.05;5.97;;;;;;;20.49;54.56;100926.97;5023198;28;20050;-35
2023/05/10 01:02:20;;;;;;;9.60;6.30;;;;;;;20.49;53.91;100923.44;5026223;28;20045;-36
2023/05/10 01:04:47;;;;;;;9.18;6.47;;;;;;;20.46;54.19;100928.13;5027548;28;20056;-35
2023/05/10 01:07:14;;;;;;;8.60;6.25;;;;;;;20.47;54.41;100931.66;5026909;28;20499;-36
2023/05/10 01:09:40;;;;;;;9.25;6.47;;;;;;;20.47;54.07;100928.97;5024762;28;20164;-35
2023/05/10 01:12:07;;;;;;;10.90;6.97;;;;;;;20.45;54.29;100928.28;5031048;28;20049;-36
2023/05/10 01:14:36;;;;;;;9.48;6.28;;;;;;;20.46;53.98;100925.44;5023603;28;20050;-36
2023/05/10 01:17:05;;;;;;;9.10;6.15;;;;;;;20.46;54.53;100928.13;5030039;28;20045;-36
2023/05/10 01:19:34;;;;;;;11.88;7.07;;;;;;;20.45;54.44;100930.97;5030635;28;20054;-36
2023/05/10 01:22:01;;;;;;;8.43;6.32;;;;;;;20.44;53.98;100929.28;5025668;28;20148;-35
2023/05/10 01:24:52;;;;;;;8.68;6.13;;;;;;;20.44;54.52;100930.13;5026941;28;20083;-36
2023/05/10 01:27:34;;;;;;;8.18;5.63;;;;;;;20.44;53.91;100926.59;5041089;28;20057;-36
2023/05/10 01:30:25;;;;;;;8.38;6.03;;;;;;;20.44;54.26;100930.13;5025012;28;20049;-36
2023/05/10 01:32:58;;;;;;;7.90;5.68;;;;;;;20.45;53.99;100925.59;5023060;28;20604;-35
2023/05/10 01:35:46;;;;;;;8.60;5.90;;;;;;;20.43;53.99;100922.25;5028243;28;20132;-36
2023/05/10 01:38:29;;;;;;;8.77;6.40;;;;;;;20.43;54.09;100922.25;5023138;28;20049;-36
2023/05/10 01:41:18;;;;;;;8.87;5.97;;;;;;;20.41;54.00;100927.78;5027783;28;20429;-35
2023/05/10 01:44:12;;;;;;;9.30;6.60;;;;;;;20.42;53.97;100934.00;5023865;28;20132;-35
2023/05/10 01:46:40;;;;;;;10.07;7.15;;;;;;;20.42;53.93;100934.84;5026140;28;20051;-38
2023/05/10 01:49:11;;;;;;;8.07;5.75;;;;;;;20.41;53.96;100937.69;5021082;28;20057;-35
2023/05/10 01:51:44;;;;;;;9.98;6.78;;;;;;;20.41;54.40;100933.16;5026215;28;20057;-36
2023/05/10 01:54:13;;;;;;;10.82;6.63;;;;;;;20.40;54.25;100930.63;5024129;28;20085;-35
2023/05/10 01:56:41;;;;;;;10.60;6.72;;;;;;;20.40;54.27;100939.56;5029296;28;20319;-35
2023/05/10 01:59:18;;;;;;;8.98;6.20;;;;;;;20.39;54.49;100948.66;5024470;28;20341;-35
2023/05/10 02:01:46;;;;;;;8.02;6.13;;;;;;;20.39;53.94;100947.81;5025415;28;20049;-35
2023/05/10 02:04:16;;;;;;;10.95;6.43;;;;;;;20.38;54.14;100955.06;5026780;28;20055;-36
2023/05/10 02:06:45;;;;;;;10.23;6.53;;;;;;;20.38;54.49;100946.97;5025225;28;20073;-35
2023/05/10 02:09:13;;;;;;;9.93;6.13;;;;;;;20.37;53.89;100955.19;5026484;28;20064;-35
2023/05/10 02:11:42;;;;;;;9.23;6.00;;;;;;;20.38;54.34;100951.50;5027049;28;20057;-35
2023/05/10 02:14:10;;;;;;;9.07;6.25;;;;;;;20.37;54.51;100952.50;5024048;28;20053;-35
2023/05/10 02:16:39;;;;;;;9.77;7.05;;;;;;;20.37;54.25;100957.88;5027065;28;20064;-35
2023/05/10 02:19:08;;;;;;;9.15;6.38;;;;;;;20.36;54.68;100956.22;5027746;28;20135;-36
2023/05/10 02:21:36;;;;;;;8.70;6.18;;;;;;;20.37;53.78;100955.19;5027231;28;20049;-35
2023/05/10 02:24:04;;;;;;;9.07;6.22;;;;;;;20.37;53.89;100963.28;5023852;28;20355;-36
2023/05/10 02:26:33;;;;;;;9.07;5.95;;;;;;;20.36;53.94;100967.81;5026702;28;20274;-36
2023/05/10 02:29:03;;;;;;;9.45;6.10;;;;;;;20.36;54.57;100970.50;5024149;28;20133;-36
2023/05/10 02:31:35;;;;;;;9.18;5.90;;;;;;;20.34;54.20;100967.16;5025869;28;20365;-35
2023/05/10 02:34:03;;;;;;;7.75;5.70;;;;;;;20.35;54.21;100976.06;5026762;28;20437;-35
2023/05/10 02:36:29;;;;;;;8.63;5.93;;;;;;;20.35;54.27;100973.38;5027331;28;20426;-35
2023/05/10 02:38:58;;;;;;;8.52;5.75;;;;;;;20.35;54.25;100973.38;5027768;28;20060;-35
2023/05/10 02:41:26;;;;;;;10.93;6.30;;;;;;;20.34;54.02;100968.97;5024773;28;20053;-35
2023/05/10 02:43:57;;;;;;;7.88;5.70;;;;;;;20.33;54.43;100978.91;5023413;28;20103;-37
2023/05/10 02:46:23;;;;;;;8.38;5.43;;;;;;;20.33;54.60;100981.59;5028004;28;20356;-36
2023/05/10 02:48:50;;;;;;;7.07;5.55;;;;;;;20.33;54.70;100980.75;5025067;28;20049;-35
2023/05/10 02:51:18;;;;;;;8.05;5.32;;;;;;;20.32;54.56;100974.53;5022848;28;20053;-36
2023/05/10 02:53:49;;;;;;;8.05;5.57;;;;;;;20.32;53.96;100974.53;5025427;28;20130;-35
2023/05/10 02:56:25;;;;;;;8.05;5.53;;;;;;;20.31;54.37;100978.25;5024953;28;20042;-36
2023/05/10 02:58:52;;;;;;;8.00;5.53;;;;;;;20.31;54.68;100972.03;5021019;28;20050;-36
2023/05/10 03:01:18;;;;;;;7.47;5.05;;;;;;;20.31;54.46;100982.78;5022808;28;20045;-35
2023/05/10 03:03:45;;;;;;;7.78;5.45;;;;;;;20.30;54.78;100979.25;5023252;28;20038;-36
2023/05/10 03:06:12;;;;;;;9.05;5.78;;;;;;;20.30;54.60;100973.00;5023971;28;20506;-35
2023/05/10 03:08:39;;;;;;;8.27;5.68;;;;;;;20.30;54.46;100981.09;5023027;28;20131;-35
2023/05/10 03:11:08;;;;;;;7.25;5.05;;;;;;;20.29;54.87;100979.41;5024810;28;20468;-36
2023/05/10 03:13:54;;;;;;;8.20;5.70;;;;;;;20.28;54.34;100981.25;5025297;28;20648;-36
2023/05/10 03:16:29;;;;;;;8.77;5.53;;;;;;;20.28;54.41;100969.66;5024776;28;20045;-35
2023/05/10 03:19:11;;;;;;;9.00;5.65;;;;;;;20.28;54.80;100975.03;5023233;28;20054;-35
2023/05/10 03:21:41;;;;;;;7.22;4.90;;;;;;;20.27;54.12;100979.59;5022317;28;20054;-36
2023/05/10 03:24:11;;;;;;;7.95;5.63;;;;;;;20.27;54.71;100982.28;5021004;28;20049;-36
2023/05/10 03:26:39;;;;;;;8.30;5.15;;;;;;;20.27;54.55;100978.75;5024929;28;20052;-36
2023/05/10 03:29:07;;;;;;;7.50;5.60;;;;;;;20.27;54.32;100976.06;5026934;28;20077;-35
2023/05/10 03:31:34;;;;;;;8.00;5.63;;;;;;;20.26;54.27;100969.84;5024382;28;20057;-35
2023/05/10 03:34:01;;;;;;;7.63;4.97;;;;;;;20.26;54.19;100980.59;5022071;28;20061;-35
2023/05/10 03:36:28;;;;;;;9.15;5.95;;;;;;;20.26;54.43;100979.72;5022899;28;20045;-36
2023/05/10 03:38:54;;;;;;;7.35;5.00;;;;;;;20.25;54.24;100984.28;5026724;28;20336;-35
2023/05/10 03:41:21;;;;;;;6.97;4.95;;;;;;;20.27;54.85;100981.44;5023736;28;20055;-36
2023/05/10 03:43:47;;;;;;;7.88;5.43;;;;;;;20.25;54.50;100978.91;5020421;28;20058;-35
2023/05/10 03:46:14;;;;;;;8.40;5.18;;;;;;;20.25;54.43;100986.97;5024533;28;20356;-35
2023/05/10 03:48:41;;;;;;;7.25;5.15;;;;;;;20.26;54.17;100990.50;5024982;28;20498;-35
2023/05/10 03:51:07;;;;;;;6.32;4.68;;;;;;;20.25;54.57;100981.59;5025608;28;20053;-35
2023/05/10 03:53:34;;;;;;;7.05;5.05;;;;;;;20.24;54.88;100985.28;5025035;28;20131;-36
2023/05/10 03:56:00;;;;;;;7.97;5.35;;;;;;;20.24;54.33;100990.69;5021285;28;20080;-35
2023/05/10 03:58:27;;;;;;;8.35;5.53;;;;;;;20.23;54.44;100988.16;5020311;28;20136;-35
2023/05/10 04:00:53;;;;;;;7.68;5.30;;;;;;;20.23;54.69;100982.78;5022227;28;20046;-35
2023/05/10 04:03:20;;;;;;;8.80;5.63;;;;;;;20.22;54.89;100984.59;5022145;28;20148;-35
2023/05/10 04:05:47;;;;;;;7.95;5.43;;;;;;;20.23;54.69;100985.47;5022110;28;20053;-36
2023/05/10 04:08:16;;;;;;;7.85;5.68;;;;;;;20.21;55.00;100986.44;5021038;28;20112;-35
2023/05/10 04:10:42;;;;;;;8.55;5.55;;;;;;;20.21;54.94;100988.31;5023594;28;20049;-35
2023/05/10 04:13:09;;;;;;;7.43;4.80;;;;;;;20.21;54.29;100986.44;5021208;28;20050;-37
2023/05/10 04:15:36;;;;;;;10.23;5.60;;;;;;;20.21;54.53;100994.53;5025976;28;20120;-40
2023/05/10 04:18:02;;;;;;;8.60;5.57;;;;;;;20.20;54.44;100992.84;5022693;28;20045;-36
2023/05/10 04:20:32;;;;;;;8.00;5.03;;;;;;;20.20;54.65;100992.84;5020610;28;20453;-36
2023/05/10 04:22:58;;;;;;;10.38;6.38;;;;;;;20.21;54.45;100996.38;5020336;28;20050;-35
2023/05/10 04:25:25;;;;;;;8.45;5.72;;;;;;;20.19;54.53;100991.16;5020382;28;20064;-35
2023/05/10 04:27:52;;;;;;;8.02;5.75;;;;;;;20.19;54.26;100996.56;5011085;28;20052;-36
2023/05/10 04:30:18;;;;;;;7.72;5.22;;;;;;;20.19;54.15;100999.25;5016689;28;20057;-36
2023/05/10 04:32:45;;;;;;;6.68;4.97;;;;;;;20.19;54.85;101001.09;5019246;28;20045;-36
2023/05/10 04:35:11;;;;;;;8.77;6.15;;;;;;;20.19;54.89;100995.72;5026148;28;20065;-36
2023/05/10 04:37:38;;;;;;;8.30;5.28;;;;;;;20.19;54.28;100993.03;5027642;28;20319;-35
2023/05/10 04:40:06;;;;;;;8.93;6.05;;;;;;;20.19;54.55;101006.47;5021137;28;20536;-36
2023/05/10 04:42:32;;;;;;;7.63;5.72;;;;;;;20.18;54.88;101011.03;5023940;28;20394;-35
2023/05/10 04:44:59;;;;;;;8.32;5.90;;;;;;;20.18;54.21;101010.16;5023381;28;20131;-35
2023/05/10 04:47:25;;;;;;;8.07;5.63;;;;;;;20.18;54.72;101004.78;5024966;28;20369;-36
2023/05/10 04:49:52;;;;;;;10.43;6.20;;;;;;;20.17;54.83;101008.47;5026682;28;20049;-35
2023/05/10 04:52:18;;;;;;;10.10;5.95;;;;;;;20.18;54.78;101012.84;5026613;28;20367;-36
2023/05/10 04:54:45;;;;;;;9.55;6.00;;;;;;;20.18;54.89;101010.16;5030189;28;20132;-35
2023/05/10 04:57:12;;;;;;;8.50;5.95;;;;;;;20.17;54.68;101014.69;5027565;28;20045;-35
2023/05/10 04:59:38;;;;;;;9.43;6.05;;;;;;;20.18;54.20;101015.53;5025751;28;20052;-35
2023/05/10 05:02:05;;;;;;;9.27;5.97;;;;;;;20.17;54.92;101020.09;5023712;28;20133;-36
2023/05/10 05:04:31;;;;;;;8.30;5.32;;;;;;;20.18;54.70;101018.22;5024581;28;20053;-35
2023/05/10 05:06:58;;;;;;;8.65;5.95;;;;;;;20.17;54.42;101025.47;5027886;28;20145;-35
2023/05/10 05:09:25;;;;;;;8.35;5.93;;;;;;;20.17;54.69;101022.78;5028686;28;20049;-35
2023/05/10 05:11:51;;;;;;;10.18;6.82;;;;;;;20.17;54.54;101033.53;5029619;28;20432;-35
2023/05/10 05:14:20;;;;;;;8.20;5.53;;;;;;;20.17;54.76;101041.63;5028426;28;20048;-34
2023/05/10 05:16:47;;;;;;;8.10;6.05;;;;;;;20.16;54.50;101039.94;5025626;28;20047;-35
2023/05/10 05:19:13;;;;;;;8.77;6.00;;;;;;;20.16;54.31;101039.09;5029076;28;20050;-35
2023/05/10 05:21:40;;;;;;;10.07;6.82;;;;;;;20.16;54.61;101048.00;5024497;28;20045;-38
2023/05/10 05:24:07;;;;;;;10.73;6.32;;;;;;;20.14;54.59;101058.13;5027367;28;20128;-36
2023/05/10 05:26:33;;;;;;;10.13;6.35;;;;;;;20.14;54.41;101047.34;5028614;28;20041;-35
2023/05/10 05:29:00;;;;;;;9.52;6.32;;;;;;;20.14;54.72;101050.03;5027490;28;20104;-35
2023/05/10 05:31:26;;;;;;;8.50;6.70;;;;;;;20.14;54.60;101050.03;5028093;28;20089;-35
2023/05/10 05:33:53;;;;;;;10.85;7.15;;;;;;;20.14;54.85;101050.03;5028375;28;20330;-35
2023/05/10 05:36:19;;;;;;;9.25;6.25;;;;;;;20.15;54.36;101054.41;5029259;28;20257;-35
2023/05/10 05:38:46;;;;;;;9.05;6.38;;;;;;;20.15;54.93;101059.78;5025975;28;20053;-36
2023/05/10 05:41:13;;;;;;;7.88;6.07;;;;;;;20.15;54.92;101057.09;5028858;28;20088;-36
2023/05/10 05:43:39;;;;;;;9.43;6.28;;;;;;;20.16;55.05;101064.16;5030295;28;20049;-36
2023/05/10 05:46:06;;;;;;;10.55;7.18;;;;;;;20.17;54.89;101075.75;5022171;28;20421;-35
2023/05/10 05:48:32;;;;;;;9.63;6.68;;;;;;;20.17;54.30;101068.53;5026461;28;20060;-37
2023/05/10 05:50:59;;;;;;;11.15;6.25;;;;;;;20.17;54.23;101073.06;5023220;28;20473;-36
2023/05/10 05:53:26;;;;;;;12.10;7.13;;;;;;;20.17;54.85;101073.91;5023543;28;20045;-35
2023/05/10 05:55:57;;;;;;;11.38;6.88;;;;;;;20.17;54.34;101073.91;5021130;28;20369;-36
2023/05/10 05:58:24;;;;;;;7.90;6.35;;;;;;;20.18;54.85;101075.63;5024076;28;20428;-37
2023/05/10 06:00:51;;;;;;;8.85;6.32;;;;;;;20.18;54.14;101085.50;5026204;28;20249;-35
2023/05/10 06:03:19;;;;;;;9.98;6.25;;;;;;;20.18;54.17;101086.38;5024807;28;20049;-35
2023/05/10 06:05:46;;;;;;;9.48;6.55;;;;;;;20.18;54.72;101086.38;5026990;28;20045;-36
2023/05/10 06:08:12;;;;;;;9.68;6.25;;;;;;;20.19;54.30;101084.53;5021538;28;20076;-35
2023/05/10 06:10:39;;;;;;;8.95;6.22;;;;;;;20.19;54.48;101087.22;5022630;28;20071;-35
2023/05/10 06:13:05;;;;;;;8.82;6.30;;;;;;;20.18;54.74;101088.19;5023356;28;20059;-37
2023/05/10 06:15:32;;;;;;;9.50;6.63;;;;;;;20.18;54.19;101094.47;5025176;28;20049;-34
2023/05/10 06:17:59;;;;;;;9.77;6.20;;;;;;;20.18;54.08;101091.75;5020993;28;20049;-35
2023/05/10 06:20:26;;;;;;;9.55;6.30;;;;;;;20.17;54.12;101084.69;5020123;28;20397;-34
2023/05/10 06:22:52;;;;;;;8.38;6.00;;;;;;;20.19;54.73;101090.75;5025853;28;20044;-35
2023/05/10 06:25:19;;;;;;;8.80;6.25;;;;;;;20.19;54.05;101090.75;5025877;28;20335;-35
2023/05/10 06:27:46;;;;;;;11.63;6.32;;;;;;;20.20;54.68;101092.44;5026737;28;20122;-35
2023/05/10 06:30:18;;;;;;;9.07;6.07;;;;;;;20.23;54.01;101093.13;5023170;28;20053;-38
2023/05/10 06:32:45;;;;;;;9.68;5.97;;;;;;;20.24;54.21;101095.66;5022275;28;20322;-36
2023/05/10 06:35:12;;;;;;;8.95;6.32;;;;;;;20.25;54.10;101091.09;5020423;28;20120;-36
2023/05/10 06:37:38;;;;;;;7.88;5.65;;;;;;;20.27;54.58;101097.19;5026408;28;20045;-36
2023/05/10 06:40:06;;;;;;;7.80;6.10;;;;;;;20.27;53.93;101098.03;5026443;28;20453;-36
2023/05/10 06:42:33;;;;;;;9.30;6.53;;;;;;;20.29;53.99;101097.84;5025238;28;20132;-35
2023/05/10 06:44:59;;;;;;;6.88;5.38;;;;;;;20.31;54.53;101095.84;5026726;28;20053;-35
2023/05/10 06:47:26;;;;;;;7.95;5.57;;;;;;;20.32;54.30;101097.53;5026800;28;20044;-36
2023/05/10 06:49:53;;;;;;;8.80;5.80;;;;;;;20.33;54.23;101097.34;5030967;28;20065;-37
2023/05/10 06:52:20;;;;;;;8.13;5.82;;;;;;;20.34;53.79;101093.69;5024864;28;20494;-38
2023/05/10 06:54:46;;;;;;;9.52;5.57;;;;;;;20.37;54.36;101100.56;5024236;28;20050;-35
2023/05/10 06:57:13;;;;;;;7.47;5.53;;;;;;;20.36;53.90;101099.72;5022673;28;20051;-35
2023/05/10 06:59:56;;;;;;;9.43;6.25;;;;;;;20.38;54.21;101107.63;5028835;28;20088;-35
2023/05/10 07:02:23;;;;;;;8.68;6.43;;;;;;;20.37;53.97;101105.94;5025732;28;20444;-35
2023/05/10 07:04:50;;;;;;;8.95;5.32;;;;;;;20.38;53.69;101113.03;5025599;28;20054;-35
2023/05/10 07:07:16;;;;;;;7.00;5.35;;;;;;;20.37;53.98;101119.41;5025099;28;20053;-35
2023/05/10 07:09:43;;;;;;;6.90;5.22;;;;;;;20.37;54.13;101111.34;5021972;28;20049;-34
2023/05/10 07:12:10;;;;;;;7.20;5.45;;;;;;;20.37;53.69;101122.09;5018440;28;20054;-35
2023/05/10 07:14:40;;;;;;;13.05;6.63;;;;;;;20.37;54.03;101116.72;5020723;28;20057;-35
2023/05/10 07:17:06;;;;;;;11.20;6.63;;;;;;;20.36;53.69;101123.13;5024298;28;20082;-35
2023/05/10 07:19:33;;;;;;;13.05;7.25;;;;;;;20.36;54.16;101125.81;5023555;28;20081;-35
2023/05/10 07:22:00;;;;;;;10.45;6.68;;;;;;;20.35;54.40;101129.53;5021166;28;20480;-34
2023/05/10 07:24:27;;;;;;;10.38;5.90;;;;;;;20.35;54.41;101134.91;5024608;28;20068;-35
2023/05/10 07:26:54;;;;;;;10.70;5.70;;;;;;;20.34;54.42;101133.19;5025565;28;20049;-34
2023/05/10 07:29:20;;;;;;;9.00;6.22;;;;;;;20.34;54.28;101134.06;5025964;28;20076;-35
2023/05/10 07:31:47;;;;;;;10.85;6.05;;;;;;;20.34;54.01;101143.97;5021438;28;20056;-35
2023/05/10 07:34:13;;;;;;;9.32;6.05;;;;;;;20.35;53.85;101134.91;5023558;28;20045;-36
2023/05/10 07:36:40;;;;;;;12.52;6.15;;;;;;;20.36;54.31;101136.59;5018674;28;20132;-36
2023/05/10 07:39:07;;;;;;;11.43;6.18;;;;;;;20.36;54.13;101136.59;5022124;28;20045;-35
2023/05/10 07:41:33;;;;;;;9.30;6.20;;;;;;;20.37;54.35;101146.34;5023220;28;20080;-35
2023/05/10 07:44:01;;;;;;;9.80;6.05;;;;;;;20.37;54.05;101139.09;5025480;28;20547;-36
2023/05/10 07:46:28;;;;;;;10.48;6.18;;;;;;;20.37;53.98;101141.78;5022826;28;20058;-35
2023/05/10 07:48:55;;;;;;;10.98;7.03;;;;;;;20.37;53.65;101147.19;5019671;28;20042;-35
2023/05/10 07:51:22;;;;;;;10.52;5.93;;;;;;;20.38;53.53;101145.31;5024516;28;20068;-35
2023/05/10 07:53:49;;;;;;;11.77;7.00;;;;;;;20.39;54.13;101141.66;5019713;28;20529;-35
2023/05/10 07:56:29;;;;;;;10.43;5.90;;;;;;;20.38;54.18;101146.19;5024399;28;20148;-35
2023/05/10 07:58:57;;;;;;;9.82;6.07;;;;;;;20.40;54.10;101146.84;5021382;28;20045;-35
2023/05/10 08:01:24;;;;;;;11.57;6.25;;;;;;;20.41;53.76;101151.22;5023734;28;20052;-35
2023/05/10 08:03:51;;;;;;;10.70;5.72;;;;;;;20.40;53.68;101141.47;5024925;28;20049;-35
2023/05/10 08:06:19;;;;;;;9.63;6.18;;;;;;;20.41;54.11;101153.91;5019958;28;20050;-35
2023/05/10 08:08:49;;;;;;;11.15;6.30;;;;;;;20.42;53.77;101157.47;5020379;28;20038;-35
2023/05/10 08:11:22;;;;;;;9.63;5.55;;;;;;;20.41;53.72;101156.63;5025454;28;20314;-35
2023/05/10 08:13:50;;;;;;;9.98;5.80;;;;;;;20.42;53.97;101152.94;5025624;28;20053;-35
2023/05/10 08:16:17;;;;;;;11.07;6.03;;;;;;;20.42;53.57;101152.94;5025835;28;20056;-36
2023/05/10 08:18:46;;;;;;;9.77;5.97;;;;;;;20.43;54.00;101169.94;5021974;28;20060;-35
2023/05/10 08:21:14;;;;;;;9.88;5.63;;;;;;;20.43;53.65;101170.78;5024171;28;20373;-34
2023/05/10 08:23:43;;;;;;;7.88;5.30;;;;;;;20.43;54.09;101169.94;5022446;28;20124;-34
2023/05/10 08:26:10;;;;;;;8.82;5.40;;;;;;;20.43;54.07;101176.16;5022213;28;20045;-35
2023/05/10 08:28:37;;;;;;;9.63;5.57;;;;;;;20.44;53.39;101177.00;5022149;28;20038;-35
2023/05/10 08:31:04;;;;;;;9.13;5.57;;;;;;;20.44;53.48;101183.22;5024068;28;20305;-35
2023/05/10 08:33:31;;;;;;;9.48;5.95;;;;;;;20.44;53.49;101190.47;5022517;28;20516;-34
2023/05/10 08:35:58;;;;;;;8.70;5.53;;;;;;;20.44;53.99;101190.47;5021883;28;20076;-35
2023/05/10 08:38:25;;;;;;;8.00;5.38;;;;;;;20.44;53.97;101193.16;5023798;28;20049;-35
2023/05/10 08:40:56;;;;;;;8.93;5.72;;;;;;;20.43;53.72;101200.41;5019863;28;20361;-35
2023/05/10 08:43:26;;;;;;;8.68;5.88;;;;;;;20.44;53.81;101190.47;5022164;28;20059;-35
2023/05/10 08:45:55;;;;;;;7.53;5.55;;;;;;;20.45;53.65;101194.84;5021479;28;20057;-35
2023/05/10 08:48:24;;;;;;;10.93;6.15;;;;;;;20.46;53.59;101197.38;5019490;28;20468;-35
2023/05/10 08:50:54;;;;;;;9.57;5.88;;;;;;;20.48;53.97;101199.06;5020771;28;20061;-35
2023/05/10 08:53:23;;;;;;;10.85;5.55;;;;;;;20.49;54.13;101207.00;5028109;28;20136;-36
2023/05/10 08:55:50;;;;;;;7.85;5.30;;;;;;;20.51;53.36;101205.00;5022346;28;20064;-35
2023/05/10 08:58:19;;;;;;;9.45;5.18;;;;;;;20.51;53.64;101205.00;5022653;28;20054;-36
2023/05/10 09:00:48;;;;;;;10.20;5.43;;;;;;;20.52;53.13;101204.00;5023517;28;20045;-35
2023/05/10 09:03:15;;;;;;;9.50;5.75;;;;;;;20.53;53.83;101208.38;5020934;28;20049;-34
2023/05/10 09:05:42;;;;;;;7.95;5.45;;;;;;;20.53;53.31;101202.97;5017769;28;20079;-35
2023/05/10 09:08:09;;;;;;;6.85;4.78;;;;;;;20.55;53.36;101202.84;5024446;28;20099;-35
2023/05/10 09:10:38;;;;;;;8.25;5.40;;;;;;;20.57;53.38;101208.91;5021795;28;20049;-35
2023/05/10 09:13:05;;;;;;;7.32;5.00;;;;;;;20.55;53.18;101206.38;5023806;28;20056;-35
2023/05/10 09:15:32;;;;;;;8.98;6.07;;;;;;;20.55;53.42;101209.06;5021142;28;20455;-36
2023/05/10 09:18:01;;;;;;;8.05;5.60;;;;;;;20.55;52.91;101203.69;5016555;28;20045;-35
2023/05/10 09:20:28;;;;;;;8.43;5.03;;;;;;;20.57;53.07;101225.88;5022779;28;20042;-35
2023/05/10 09:22:55;;;;;;;6.60;4.85;;;;;;;20.58;52.94;101216.84;5020613;28;20049;-35
2023/05/10 09:25:22;;;;;;;6.57;4.90;;;;;;;20.58;53.42;101232.13;5028897;28;20056;-35
2023/05/10 09:27:49;;;;;;;8.05;5.63;;;;;;;20.57;53.21;101228.59;5026921;28;20395;-35
2023/05/10 09:30:22;;;;;;;6.90;4.50;;;;;;;20.56;53.15;101226.91;5030655;28;20108;-35
2023/05/10 09:32:50;;;;;;;6.75;4.95;;;;;;;20.57;53.38;101231.28;5029641;28;20068;-35
2023/05/10 09:35:20;;;;;;;6.30;4.97;;;;;;;20.55;53.25;101238.69;5027654;28;20052;-35
2023/05/10 09:37:53;;;;;;;6.78;4.97;;;;;;;20.56;53.48;101234.16;5024412;28;20402;-35
2023/05/10 09:40:22;;;;;;;6.95;4.70;;;;;;;20.57;53.32;101241.22;5024392;28;20128;-35
2023/05/10 09:42:55;;;;;;;7.22;4.72;;;;;;;20.56;53.30;101239.53;5022630;28;20184;-35
2023/05/10 09:45:23;;;;;;;8.88;4.85;;;;;;;20.56;53.09;101236.84;5027010;28;20136;-36
2023/05/10 09:47:50;;;;;;;6.85;4.60;;;;;;;20.56;53.33;101244.91;5023504;28;20103;-35
2023/05/10 09:50:17;;;;;;;6.70;4.63;;;;;;;20.55;53.36;101244.06;5026291;28;20057;-35
2023/05/10 09:52:58;;;;;;;6.28;4.18;;;;;;;20.54;52.87;101246.91;5027166;28;20049;-36
2023/05/10 09:55:39;;;;;;;6.22;4.32;;;;;;;20.55;53.31;101249.47;5028065;28;20045;-35
2023/05/10 09:58:09;;;;;;;8.40;4.93;;;;;;;20.55;52.87;101249.47;5024019;28;20041;-35
2023/05/10 10:00:39;;;;;;;6.30;4.78;;;;;;;20.55;53.32;101249.47;5025574;28;20053;-35
2023/05/10 10:03:14;;;;;;;7.80;4.88;;;;;;;20.57;52.89;101252.81;5023433;28;20056;-35
2023/05/10 10:05:42;;;;;;;8.57;5.35;;;;;;;20.56;52.76;101251.13;5023407;28;20360;-36
2023/05/10 10:08:09;;;;;;;6.72;4.68;;;;;;;20.57;52.96;101250.13;5023508;28;20049;-35
2023/05/10 10:10:36;;;;;;;6.22;4.55;;;;;;;20.57;52.90;101258.22;5022810;28;20128;-35
2023/05/10 10:13:04;;;;;;;6.18;4.57;;;;;;;20.57;52.81;101252.81;5023762;28;20065;-35
2023/05/10 10:15:32;;;;;;;7.60;4.55;;;;;;;20.58;53.12;101259.06;5026788;28;20045;-35
2023/05/10 10:17:59;;;;;;;5.53;4.28;;;;;;;20.58;53.52;101251.84;5025418;28;20095;-35
2023/05/10 10:20:27;;;;;;;5.53;4.60;;;;;;;20.59;53.41;101258.06;5019755;28;20053;-35
2023/05/10 10:22:54;;;;;;;5.03;4.18;;;;;;;20.59;53.23;101250.84;5019209;28;20073;-35
2023/05/10 10:25:22;;;;;;;5.78;4.47;;;;;;;20.60;53.14;101257.91;5024596;28;20145;-35
2023/05/10 10:27:51;;;;;;;6.45;4.57;;;;;;;20.62;52.85;101261.28;5024021;28;20046;-35
2023/05/10 10:30:37;;;;;;;5.68;4.32;;;;;;;20.63;53.46;101259.44;5024013;28;20076;-36
2023/05/10 10:33:25;;;;;;;7.88;4.22;;;;;;;20.64;53.31;101264.66;5022944;28;20512;-35
2023/05/10 10:35:57;;;;;;;5.75;4.10;;;;;;;20.67;53.10;101260.81;5024453;28;20058;-35
2023/05/10 10:38:24;;;;;;;5.57;4.18;;;;;;;20.68;52.65;101266.03;5024466;28;20050;-35
2023/05/10 10:41:10;;;;;;;5.55;3.70;;;;;;;20.69;52.91;101261.47;5029664;28;20479;-35
2023/05/10 10:43:37;;;;;;;6.10;3.85;;;;;;;20.73;52.59;101267.38;5020961;28;20140;-35
2023/05/10 10:46:14;;;;;;;7.20;4.38;;;;;;;20.72;52.82;101260.31;5021174;28;20100;-36
2023/05/10 10:49:08;;;;;;;5.63;4.07;;;;;;;20.73;52.48;101262.84;5027117;28;20108;-35
2023/05/10 10:51:38;;;;;;;6.10;4.10;;;;;;;20.75;52.49;101268.91;5027670;28;20124;-35
2023/05/10 10:54:11;;;;;;;5.10;3.95;;;;;;;20.74;52.77;101269.06;5021852;28;20533;-35
2023/05/10 10:56:38;;;;;;;5.10;3.65;;;;;;;20.75;52.60;101266.22;5025870;28;20349;-35
2023/05/10 10:59:05;;;;;;;6.13;3.95;;;;;;;20.74;52.92;101269.06;5021288;28;20068;-35
2023/05/10 11:01:37;;;;;;;4.47;3.42;;;;;;;20.74;52.68;101272.59;5028941;28;20053;-35
2023/05/10 11:04:04;;;;;;;6.22;3.97;;;;;;;20.75;52.25;101270.78;5029006;28;20058;-34
2023/05/10 11:06:33;;;;;;;5.03;3.75;;;;;;;20.75;52.50;101271.63;5024460;28;20054;-35
2023/05/10 11:09:06;;;;;;;4.70;3.75;;;;;;;20.73;52.80;101267.38;5024217;28;20044;-36
2023/05/10 11:11:34;;;;;;;6.03;3.83;;;;;;;20.73;52.51;101268.22;5024478;28;20053;-34
2023/05/10 11:14:05;;;;;;;6.68;3.63;;;;;;;20.74;52.62;101269.06;5022884;28;20053;-35
2023/05/10 11:16:44;;;;;;;5.03;3.65;;;;;;;20.75;53.06;101273.47;5024623;28;20092;-36
2023/05/10 11:19:13;;;;;;;5.75;4.05;;;;;;;20.76;52.54;101270.59;5025349;28;20045;-36
2023/05/10 11:22:13;;;;;;;4.97;3.53;;;;;;;20.79;52.83;101267.59;5022906;28;20053;-36
2023/05/10 11:24:39;;;;;;;6.00;3.60;;;;;;;20.82;52.57;101272.63;5021233;28;20057;-35
2023/05/10 11:27:06;;;;;;;4.57;3.90;;;;;;;20.84;52.54;101267.09;5023702;28;20136;-35
2023/05/10 11:29:33;;;;;;;5.40;3.63;;;;;;;20.86;52.72;101270.47;5018234;28;20433;-35
2023/05/10 11:32:00;;;;;;;3.92;2.97;;;;;;;20.88;52.25;101265.78;5024166;28;20069;-35